Z43 weather

Tamgas Harbor Seaplane Base
Annette, Alaska, United States

Public forecast

Using degrees Fahrenheit for public forecast. Weather courtesy of forecast.io.

METAR (pilot weather report)

Closest report is Annette Island Airport, 1.6 nm (3.0 km) SSW. Retrieved 2019/09/21 05:53 UTC (2 hours ago):

PANT 210553Z AUTO 15019G30KT 5SM RA BR OVC006 14/14 A2973 RMK PK WND 15035/0535 SLP067 P0011 60046 T01390139 10139 20133 56026 TSNO VIA AUTODIAL

TAF (pilot weather forecast)

Closest forecast is Ketchikan International Airport, 18.1 nm (33.5 km) NNW. Retrieved 2019/09/21 06:36 UTC (1 hour ago):

TAF PAKT 210533Z 2106/2206 14020G32KT 4SM RA BR SCT006 OVC012 WS020/17050KT TEMPO 2106/2110 2SM +RA BR BKN006 FM211200 14014G24KT 3SM -RA BR BKN006 OVC012 FM211700 14012G20KT 6SM -SHRA SCT008 BKN025 OVC040 AMD LTD TO CLD VIS AND WIND 2106/2115